createdAt,value
2023-02-07T08:42:28.793Z,1010.16
2023-02-07T08:43:29.655Z,1010.19
2023-02-07T08:44:30.541Z,1010.19
2023-02-07T08:45:31.764Z,1010.23
2023-02-07T08:46:33.180Z,1010.25
2023-02-07T08:47:34.146Z,1010.29
2023-02-07T08:48:35.061Z,1010.32
2023-02-07T08:49:35.918Z,1010.34
2023-02-07T08:50:37.927Z,1010.37
2023-02-07T08:51:38.992Z,1010.35
2023-02-07T08:52:39.856Z,1010.33
2023-02-07T08:53:40.754Z,1010.36
2023-02-07T08:54:41.649Z,1010.31
2023-02-07T08:55:42.519Z,1010.31
2023-02-07T08:56:43.397Z,1010.26
2023-02-07T08:57:44.444Z,1010.24
2023-02-07T08:58:45.340Z,1010.24
2023-02-07T08:59:46.194Z,1010.15
2023-02-07T09:00:47.346Z,1010.14
2023-02-07T09:01:48.253Z,1010.15
2023-02-07T09:02:49.136Z,1010.21
2023-02-07T09:03:50.021Z,1010.15
2023-02-07T09:04:50.928Z,1010.11
2023-02-07T09:05:51.801Z,1010.06
2023-02-07T09:06:52.671Z,1010.06
2023-02-07T09:07:53.518Z,1009.99
2023-02-07T09:08:54.405Z,1009.95
2023-02-07T09:09:55.254Z,1009.92
2023-02-07T09:10:56.541Z,1009.91
2023-02-07T09:11:57.474Z,1009.88
2023-02-07T09:12:58.435Z,1009.86
2023-02-07T09:13:59.351Z,1009.84
2023-02-07T09:15:00.330Z,1009.84
2023-02-07T09:16:01.325Z,1009.82
2023-02-07T09:17:02.393Z,1009.8
2023-02-07T09:18:03.278Z,1009.86
2023-02-07T09:19:04.172Z,1009.81
2023-02-07T09:20:05.367Z,1009.87
2023-02-07T09:21:06.291Z,1009.81
2023-02-07T09:22:07.221Z,1009.87
2023-02-07T11:18:38.850Z,1010.15
2023-02-07T11:19:39.744Z,1010.13
2023-02-07T11:20:40.602Z,1010.16
2023-02-07T11:21:41.465Z,1010.17
2023-02-07T11:22:42.348Z,1010.15
2023-02-07T11:23:43.240Z,1010.1
2023-02-07T11:24:44.087Z,1010.14
2023-02-07T11:25:44.952Z,1010.06
2023-02-07T11:26:45.814Z,1010.04
2023-02-07T11:27:46.874Z,1010.07
2023-02-07T11:28:48.039Z,1010.05
2023-02-07T11:29:48.933Z,1010.09
2023-02-07T11:30:50.317Z,1010.1
2023-02-07T11:31:51.522Z,1010.12
2023-02-07T11:32:52.562Z,1010.11
2023-02-07T11:33:53.688Z,1010.12
2023-02-07T11:34:54.583Z,1010.14
2023-02-07T11:35:55.510Z,1010.12
2023-02-07T11:36:56.520Z,1010.11
2023-02-07T11:37:57.432Z,1010.13
2023-02-07T11:38:58.376Z,1010.09
2023-02-07T11:39:59.275Z,1010.09
2023-02-07T11:41:00.134Z,1010.03
2023-02-07T11:42:01.057Z,1010.06
2023-02-07T11:43:01.930Z,1010.05
2023-02-07T11:44:02.819Z,1010.12
2023-02-07T11:45:03.718Z,1010.17
2023-02-07T11:46:04.624Z,1010.14
2023-02-07T11:47:05.637Z,1010.15
2023-02-07T11:48:06.665Z,1010.06
2023-02-07T11:49:07.786Z,1010.06
2023-02-07T11:50:08.722Z,1010.02
2023-02-07T11:51:09.636Z,1009.96
2023-02-07T11:52:10.537Z,1009.94
2023-02-07T11:53:11.417Z,1009.95
2023-02-07T11:54:12.307Z,1009.98
2023-02-07T11:55:13.216Z,1009.95
2023-02-07T11:56:14.133Z,1009.91
2023-02-07T11:57:15.044Z,1009.87
2023-02-07T11:58:16.080Z,1009.83
2023-02-07T11:59:16.985Z,1009.88
2023-02-07T12:00:17.879Z,1009.86
2023-02-07T12:01:18.785Z,1009.88
2023-02-07T12:02:20.012Z,1009.91
2023-02-07T12:03:20.973Z,1009.99
2023-02-07T12:04:21.932Z,1009.93
2023-02-07T12:05:23.153Z,1009.94
2023-02-07T12:06:24.132Z,1009.95
2023-02-07T12:07:24.999Z,1009.95
2023-02-07T12:08:25.906Z,1009.88
2023-02-07T12:09:27.062Z,1009.82
2023-02-07T12:10:27.945Z,1009.81
2023-02-07T12:11:28.851Z,1009.74
2023-02-07T12:12:29.703Z,1009.73
2023-02-07T12:13:30.572Z,1009.7
2023-02-07T12:14:31.491Z,1009.73
2023-02-07T12:15:32.394Z,1009.69
2023-02-07T12:16:33.609Z,1009.68
2023-02-07T12:17:34.522Z,1009.7
2023-02-07T12:18:35.445Z,1009.71
2023-02-07T12:19:36.407Z,1009.73
2023-02-07T12:20:37.311Z,1009.61
2023-02-07T12:21:38.223Z,1009.67
2023-02-07T12:22:57.423Z,1009.7
2023-02-07T12:23:43.982Z,1009.67
2023-02-07T12:24:41.773Z,1009.73
2023-02-07T12:25:42.640Z,1009.64
2023-02-07T12:26:43.575Z,1009.62
2023-02-07T12:27:44.503Z,1009.55
2023-02-07T12:28:45.439Z,1009.5
2023-02-07T12:29:46.350Z,1009.48
2023-02-07T12:30:47.380Z,1009.45
2023-02-07T12:31:49.025Z,1009.44
2023-02-07T12:32:50.278Z,1009.48
2023-02-07T12:33:51.232Z,1009.45
2023-02-07T12:34:52.244Z,1009.52
2023-02-07T12:35:59.531Z,1009.49
2023-02-07T12:36:54.305Z,1009.5
2023-02-07T12:37:55.173Z,1009.44
2023-02-07T12:38:56.060Z,1009.46
2023-02-07T12:39:56.931Z,1009.43
2023-02-07T12:40:57.786Z,1009.4
2023-02-07T12:41:58.643Z,1009.44
2023-02-07T12:42:59.504Z,1009.46
2023-02-07T12:44:06.242Z,1009.44
2023-02-07T12:45:01.013Z,1009.45
2023-02-07T12:46:02.449Z,1009.42
2023-02-07T12:47:03.430Z,1009.38
2023-02-07T12:48:04.309Z,1009.44
2023-02-07T12:49:05.230Z,1009.38
2023-02-07T12:50:06.247Z,1009.31
2023-02-07T12:51:07.222Z,1009.4
2023-02-07T12:52:08.090Z,1009.35
2023-02-07T12:53:08.964Z,1009.36
2023-02-07T12:54:09.845Z,1009.34
2023-02-07T12:55:10.683Z,1009.35
2023-02-07T12:56:11.583Z,1009.38
2023-02-07T12:57:12.500Z,1009.31
2023-02-07T12:58:13.391Z,1009.31
2023-02-07T12:59:14.288Z,1009.23
2023-02-07T13:00:15.398Z,1009.21
2023-02-07T13:01:16.564Z,1009.23
2023-02-07T13:02:17.724Z,1009.21
2023-02-07T13:03:18.666Z,1009.24
2023-02-07T13:04:19.750Z,1009.23
2023-02-07T13:05:20.844Z,1009.24
2023-02-07T13:06:21.768Z,1009.2
2023-02-07T13:07:22.780Z,1009.31
2023-02-07T13:08:23.703Z,1009.24
2023-02-07T13:09:24.604Z,1009.28
2023-02-07T13:10:25.534Z,1009.25
2023-02-07T13:11:26.473Z,1009.23
2023-02-07T13:12:27.411Z,1009.25
2023-02-07T13:13:28.346Z,1009.25
2023-02-07T13:14:29.844Z,1009.12
2023-02-07T13:15:30.940Z,1009.1
2023-02-07T13:16:32.070Z,1009.11
2023-02-07T13:17:32.959Z,1009.22
2023-02-07T13:18:33.857Z,1009.23
2023-02-07T13:19:34.756Z,1009.21
2023-02-07T13:20:35.798Z,1009.25
2023-02-07T13:21:36.822Z,1009.18
2023-02-07T13:22:37.741Z,1009.22
2023-02-07T13:23:38.772Z,1009.27
2023-02-07T13:24:39.678Z,1009.26
2023-02-07T13:25:41.664Z,1009.24
2023-02-07T13:26:42.692Z,1009.17
2023-02-07T13:27:43.567Z,1009.22
2023-02-07T13:28:44.444Z,1009.16
2023-02-07T13:29:45.394Z,1009.14
2023-02-07T13:30:46.481Z,1009.17
2023-02-07T13:31:48.114Z,1009.15
2023-02-07T13:32:49.162Z,1009.18
2023-02-07T13:33:49.999Z,1009.16
2023-02-07T13:34:50.899Z,1009.14
2023-02-07T13:35:51.852Z,1009.14
2023-02-07T13:36:52.928Z,1009.06
2023-02-07T13:37:53.788Z,1009.06
2023-02-07T13:38:54.660Z,1009.11
2023-02-07T13:39:55.556Z,1009.05
2023-02-07T13:40:56.436Z,1009.1
2023-02-07T13:41:57.297Z,1009.1
2023-02-07T13:42:58.177Z,1009.12
2023-02-07T13:44:10.674Z,1009.13
2023-02-07T13:45:02.057Z,1009.1
2023-02-07T13:46:03.220Z,1009.16
2023-02-07T13:47:04.173Z,1009.15
2023-02-07T13:48:05.034Z,1009.12
2023-02-07T13:49:05.922Z,1009.12
2023-02-07T13:50:06.788Z,1009.08
2023-02-07T13:51:07.900Z,1009.13
2023-02-07T13:52:12.179Z,1009.09
2023-02-07T13:53:09.884Z,1009.09
2023-02-07T13:54:10.860Z,1009.09
2023-02-07T13:55:11.776Z,1009.08
2023-02-07T13:56:12.644Z,1008.99
2023-02-07T13:57:13.548Z,1009
2023-02-07T13:58:14.491Z,1009.01
2023-02-07T13:59:15.406Z,1009.06
2023-02-07T14:00:16.321Z,1009.04
2023-02-07T14:01:17.321Z,1009.09
2023-02-07T14:02:18.335Z,1009.08
2023-02-07T14:03:19.465Z,1009.04
2023-02-07T14:04:20.580Z,1009.09
2023-02-07T14:05:21.487Z,1009.01
2023-02-07T14:06:22.446Z,1009.03
2023-02-07T14:07:23.331Z,1008.97
2023-02-07T14:08:24.373Z,1008.96
2023-02-07T14:09:25.313Z,1008.89
2023-02-07T14:10:26.206Z,1008.92
2023-02-07T14:11:27.067Z,1009.03
2023-02-07T14:12:28.022Z,1008.94
2023-02-07T14:13:29.014Z,1009.01
2023-02-07T14:14:29.970Z,1009.02
2023-02-07T14:15:31.144Z,1008.99
2023-02-07T14:16:32.088Z,1009.01
2023-02-07T14:17:32.982Z,1008.99
2023-02-07T14:18:33.955Z,1009
2023-02-07T14:19:37.702Z,1009.04
2023-02-07T14:20:35.385Z,1009.06
2023-02-07T14:21:36.464Z,1008.98
2023-02-07T14:22:38.108Z,1009.01
2023-02-07T14:23:39.016Z,1009.06
2023-02-07T14:24:39.933Z,1009.06
2023-02-07T14:25:41.670Z,1008.96
2023-02-07T14:26:42.556Z,1009.02
2023-02-07T14:27:43.480Z,1009.02
2023-02-07T14:28:44.369Z,1009.04
2023-02-07T14:29:45.276Z,1009.03
2023-02-07T14:30:46.723Z,1009.05
2023-02-07T14:31:48.233Z,1009.02
2023-02-07T14:32:49.264Z,1009.05
2023-02-07T14:33:50.150Z,1009.06
2023-02-07T14:34:51.075Z,1008.99
2023-02-07T14:35:51.994Z,1009.04
2023-02-07T14:36:52.968Z,1009
2023-02-07T14:37:54.032Z,1009.1
2023-02-07T14:38:55.002Z,1009.09
2023-02-07T14:39:55.858Z,1009.12
2023-02-07T14:41:12.083Z,1009.15
2023-02-07T14:41:57.046Z,1009.1
2023-02-07T14:42:57.974Z,1009.06
2023-02-07T14:44:10.567Z,1009.05
2023-02-07T14:45:01.926Z,1009.02
2023-02-07T14:46:03.123Z,1009.05
2023-02-07T14:47:04.116Z,1009.09
2023-02-07T14:48:05.021Z,1009.08
2023-02-07T14:49:05.901Z,1009.1
2023-02-07T14:50:06.788Z,1009.07
2023-02-07T14:51:07.689Z,1009.04
2023-02-07T14:52:08.841Z,1008.99
2023-02-07T14:53:09.947Z,1009.03
2023-02-07T14:54:10.964Z,1009.14
2023-02-07T14:55:11.852Z,1009.19
2023-02-07T14:56:12.746Z,1009.15
2023-02-07T16:05:52.024Z,1009.55
2023-02-07T16:06:52.862Z,1009.57
2023-02-07T16:07:53.740Z,1009.62
2023-02-07T16:08:54.637Z,1009.62
2023-02-07T16:09:55.538Z,1009.67
2023-02-07T16:10:56.425Z,1009.67
2023-02-07T16:11:57.328Z,1009.72
2023-02-07T16:12:58.190Z,1009.76
2023-02-07T16:13:59.089Z,1009.78
2023-02-07T16:15:00.170Z,1009.75
2023-02-07T16:16:01.415Z,1009.81
2023-02-07T16:17:02.408Z,1009.75
2023-02-07T16:18:03.295Z,1009.76
2023-02-07T16:19:04.199Z,1009.81
2023-02-07T16:19:53.350Z,1009.83
2023-02-07T16:20:54.291Z,1009.83
2023-02-07T16:21:55.231Z,1009.86
2023-02-07T16:22:56.119Z,1009.82
2023-02-07T16:23:56.981Z,1009.8
2023-02-07T16:24:57.924Z,1009.82
2023-02-07T16:25:58.820Z,1009.86
2023-02-07T16:26:59.706Z,1009.86
2023-02-07T16:28:00.879Z,1009.9
2023-02-07T16:29:01.833Z,1009.9
2023-02-07T16:30:02.700Z,1009.92
2023-02-07T16:31:03.841Z,1009.91
2023-02-07T16:32:05.276Z,1009.87
2023-02-07T16:33:06.240Z,1009.99
2023-02-07T16:34:07.184Z,1009.92
2023-02-07T16:35:08.054Z,1009.99
2023-02-07T16:36:08.959Z,1010
2023-02-07T16:37:09.852Z,1010.01
2023-02-07T16:38:10.770Z,1010.05
2023-02-07T16:39:11.641Z,1010.03
2023-02-07T16:40:12.504Z,1010.08
2023-02-07T16:41:13.381Z,1010.04
2023-02-07T16:42:14.259Z,1010.05
2023-02-07T16:43:15.169Z,1010.08
2023-02-07T16:44:16.029Z,1010.1
2023-02-07T16:45:16.907Z,1010.13
2023-02-07T16:46:18.196Z,1010.13
2023-02-07T16:47:19.214Z,1010.13
2023-02-07T16:48:20.090Z,1010.14
2023-02-07T16:49:20.971Z,1010.15
2023-02-07T16:50:21.855Z,1010.13
2023-02-07T16:51:22.802Z,1010.13
2023-02-07T16:52:23.726Z,1010.1
2023-02-07T16:53:24.619Z,1010.13
2023-02-07T16:54:25.509Z,1010.14
2023-02-07T16:55:26.448Z,1010.13
2023-02-07T16:56:27.332Z,1010.11
2023-02-07T16:57:28.373Z,1010.09
2023-02-07T16:58:29.279Z,1010.08
2023-02-07T16:59:30.150Z,1010.07
2023-02-07T17:00:31.052Z,1010.08
2023-02-07T17:01:31.923Z,1010.06
2023-02-07T17:02:32.784Z,1010.06
2023-02-07T17:03:33.681Z,1010.07
2023-02-07T17:04:34.534Z,1010.09
2023-02-07T17:05:35.405Z,1010.09
2023-02-07T17:06:36.308Z,1010.12
2023-02-07T17:07:37.233Z,1010.07
2023-02-07T17:08:38.373Z,1010.1
2023-02-07T17:09:39.256Z,1010.15
2023-02-07T17:10:41.637Z,1010.16
2023-02-07T17:11:42.607Z,1010.08
2023-02-07T17:12:43.503Z,1010.05
2023-02-07T17:13:44.389Z,1010.04
2023-02-07T17:14:45.253Z,1010.01
2023-02-07T17:15:46.126Z,1010.03
2023-02-07T17:16:47.467Z,1010.01
2023-02-07T17:17:48.528Z,1010.04
2023-02-07T17:18:49.425Z,1010.08
2023-02-07T17:19:50.335Z,1010.07
2023-02-07T17:20:51.226Z,1010.05
2023-02-07T17:21:52.199Z,1010.07
2023-02-07T17:22:53.279Z,1010.04
2023-02-07T17:23:54.183Z,1010.04
2023-02-07T17:24:55.077Z,1010.07
2023-02-07T17:25:55.950Z,1010.04
2023-02-07T17:26:57.534Z,1010.06
2023-02-07T17:27:58.681Z,1010.01
2023-02-07T17:28:59.638Z,1010
2023-02-07T17:30:00.646Z,1009.99
2023-02-07T17:31:01.905Z,1010.07
2023-02-07T17:32:03.242Z,1010.05
2023-02-07T17:33:04.267Z,1010.1
2023-02-07T17:34:05.114Z,1010.12
2023-02-07T17:35:05.993Z,1010.13
2023-02-07T17:36:06.858Z,1010.17
2023-02-07T17:37:07.808Z,1010.14
2023-02-07T17:38:08.719Z,1010.19
2023-02-07T17:39:09.578Z,1010.22
2023-02-07T17:40:10.577Z,1010.23
2023-02-07T17:41:11.472Z,1010.25
2023-02-07T17:42:12.462Z,1010.22
2023-02-07T17:43:13.346Z,1010.26
2023-02-07T17:44:14.207Z,1010.28
2023-02-07T17:45:15.049Z,1010.3
2023-02-07T17:46:16.254Z,1010.28
2023-02-07T17:47:17.209Z,1010.25
2023-02-07T17:48:18.106Z,1010.24
2023-02-07T17:49:18.972Z,1010.26
2023-02-07T17:50:19.830Z,1010.25
2023-02-07T17:51:20.740Z,1010.31
2023-02-07T17:52:21.776Z,1010.34
2023-02-07T17:53:22.688Z,1010.35
2023-02-07T17:54:23.549Z,1010.33
2023-02-07T17:55:24.417Z,1010.39
2023-02-07T17:56:25.322Z,1010.39
2023-02-07T17:57:26.219Z,1010.38
2023-02-07T17:58:27.131Z,1010.4
2023-02-07T17:59:27.988Z,1010.45
2023-02-07T18:00:28.882Z,1010.44
2023-02-07T18:01:29.915Z,1010.43
2023-02-07T18:02:30.993Z,1010.39
2023-02-07T18:03:31.891Z,1010.39
2023-02-07T18:04:32.838Z,1010.35
2023-02-07T18:05:36.910Z,1010.39
2023-02-07T18:06:34.740Z,1010.37
2023-02-07T18:07:35.658Z,1010.35
2023-02-07T18:08:36.579Z,1010.4
2023-02-07T18:09:37.475Z,1010.38
2023-02-07T18:10:39.690Z,1010.42
2023-02-07T18:11:40.760Z,1010.46
2023-02-07T18:12:41.647Z,1010.46
2023-02-07T18:13:42.535Z,1010.47
2023-02-07T18:14:43.385Z,1010.51
2023-02-07T18:15:44.454Z,1010.48
2023-02-07T18:16:45.450Z,1010.46
2023-02-07T18:17:46.340Z,1010.54
2023-02-07T18:18:47.194Z,1010.55
2023-02-07T18:19:48.109Z,1010.54
2023-02-07T18:20:48.992Z,1010.52
2023-02-07T18:21:49.862Z,1010.49
2023-02-07T18:22:50.773Z,1010.44
2023-02-07T18:23:51.701Z,1010.4
2023-02-07T18:24:52.594Z,1010.46
2023-02-07T18:25:53.478Z,1010.44
2023-02-07T18:26:54.376Z,1010.47
2023-02-07T18:27:55.485Z,1010.48
2023-02-07T18:28:56.425Z,1010.45
2023-02-07T18:29:57.290Z,1010.48
2023-02-07T18:30:58.546Z,1010.5
2023-02-07T18:31:59.530Z,1010.49
2023-02-07T18:33:00.437Z,1010.47
2023-02-07T18:34:01.661Z,1010.46
2023-02-07T18:35:02.526Z,1010.42
2023-02-07T18:36:03.453Z,1010.45
2023-02-07T18:37:04.352Z,1010.42
2023-02-07T18:38:05.263Z,1010.43
2023-02-07T18:39:06.239Z,1010.46
2023-02-07T18:40:07.101Z,1010.49
2023-02-07T18:41:07.973Z,1010.46
2023-02-07T18:42:08.858Z,1010.43
2023-02-07T18:43:09.734Z,1010.47
2023-02-07T18:44:10.836Z,1010.45
2023-02-07T18:45:11.720Z,1010.44
2023-02-07T18:46:13.029Z,1010.44
2023-02-07T18:47:13.990Z,1010.42
2023-02-07T18:48:14.884Z,1010.4
2023-02-07T18:49:15.749Z,1010.4
2023-02-07T18:50:16.649Z,1010.37
2023-02-07T18:51:17.525Z,1010.41
2023-02-07T18:52:18.384Z,1010.43
2023-02-07T18:53:21.607Z,1010.44
2023-02-07T18:54:19.308Z,1010.46
2023-02-07T18:55:20.191Z,1010.47
2023-02-07T18:56:21.230Z,1010.45
2023-02-07T18:57:22.235Z,1010.48
2023-02-07T18:58:23.114Z,1010.49
2023-02-07T18:59:23.959Z,1010.49
2023-02-07T19:00:24.877Z,1010.44
2023-02-07T19:01:26.029Z,1010.45
2023-02-07T19:02:27.157Z,1010.46
2023-02-07T19:03:28.081Z,1010.42
2023-02-07T19:04:29.053Z,1010.4
2023-02-07T19:05:29.980Z,1010.4
2023-02-07T19:06:30.871Z,1010.4
2023-02-07T19:07:31.743Z,1010.43
2023-02-07T19:08:32.670Z,1010.4
2023-02-07T19:09:33.606Z,1010.41
2023-02-07T19:10:34.502Z,1010.41
2023-02-07T19:11:35.347Z,1010.45
2023-02-07T19:12:36.215Z,1010.45
2023-02-07T19:13:37.126Z,1010.42
2023-02-07T19:14:38.008Z,1010.39
2023-02-07T19:15:39.124Z,1010.43
2023-02-07T19:16:40.062Z,1010.44
2023-02-07T19:17:40.917Z,1010.44
2023-02-07T19:18:41.825Z,1010.48
2023-02-07T19:19:42.674Z,1010.47
2023-02-07T19:20:43.529Z,1010.52
2023-02-07T19:21:44.411Z,1010.53
2023-02-07T19:22:45.506Z,1010.5
2023-02-07T19:23:46.444Z,1010.5
2023-02-07T19:24:47.395Z,1010.55
2023-02-07T19:25:48.285Z,1010.58
2023-02-07T19:26:49.181Z,1010.5
2023-02-07T19:27:50.337Z,1010.55
2023-02-07T19:28:51.288Z,1010.53
2023-02-07T19:29:52.135Z,1010.55
2023-02-07T19:30:53.398Z,1010.57
2023-02-07T19:31:54.655Z,1010.56
2023-02-07T19:32:55.556Z,1010.57
2023-02-07T19:33:56.450Z,1010.56
2023-02-07T19:34:57.310Z,1010.53
2023-02-07T19:35:58.201Z,1010.54
2023-02-07T19:36:59.086Z,1010.57
2023-02-07T19:37:59.991Z,1010.56
2023-02-07T19:39:00.916Z,1010.55
2023-02-07T19:40:01.814Z,1010.55
2023-02-07T19:41:02.667Z,1010.52
2023-02-07T19:42:03.583Z,1010.54
2023-02-07T19:43:04.442Z,1010.63
2023-02-07T19:44:05.320Z,1010.57
2023-02-07T19:45:06.191Z,1010.6
2023-02-07T19:46:07.468Z,1010.57
2023-02-07T19:47:08.348Z,1010.57
2023-02-07T19:48:09.221Z,1010.59
2023-02-07T19:49:12.773Z,1010.52
2023-02-07T19:50:10.457Z,1010.53
2023-02-07T19:51:11.366Z,1010.51
2023-02-07T19:52:12.273Z,1010.51
2023-02-07T19:53:13.150Z,1010.45
2023-02-07T19:54:14.222Z,1010.5
2023-02-07T19:55:15.126Z,1010.56
2023-02-07T19:56:16.021Z,1010.54
2023-02-07T19:57:16.890Z,1010.59
2023-02-07T19:58:17.759Z,1010.55
2023-02-07T19:59:18.652Z,1010.57
2023-02-07T20:00:19.696Z,1010.51
2023-02-07T20:01:20.780Z,1010.56
2023-02-07T20:02:21.889Z,1010.58
2023-02-07T20:03:22.760Z,1010.55
2023-02-07T20:04:23.670Z,1010.53
2023-02-07T20:05:24.687Z,1010.56
2023-02-07T20:06:25.642Z,1010.58
2023-02-07T20:07:26.524Z,1010.58
2023-02-07T20:08:27.678Z,1010.56
2023-02-07T20:09:28.647Z,1010.55
2023-02-07T20:10:29.569Z,1010.54
2023-02-07T20:11:30.437Z,1010.57
2023-02-07T20:12:31.328Z,1010.5
2023-02-07T20:13:32.257Z,1010.59
2023-02-07T20:14:33.136Z,1010.57
2023-02-07T20:15:34.043Z,1010.6
2023-02-07T20:16:35.237Z,1010.6
2023-02-07T20:17:36.125Z,1010.59
2023-02-07T20:18:36.997Z,1010.57
2023-02-07T20:19:37.923Z,1010.57
2023-02-07T20:20:39.995Z,1010.55
2023-02-07T20:21:41.139Z,1010.56
2023-02-07T20:22:42.051Z,1010.57
2023-02-07T20:23:42.948Z,1010.54
2023-02-07T20:24:43.853Z,1010.52
2023-02-07T20:25:44.715Z,1010.5
2023-02-07T20:26:45.617Z,1010.53
2023-02-07T20:27:46.484Z,1010.51
2023-02-07T20:28:47.349Z,1010.49
2023-02-07T20:29:48.241Z,1010.51
2023-02-07T20:30:49.273Z,1010.51
2023-02-07T20:31:50.617Z,1010.48
2023-02-07T20:32:51.637Z,1010.53
2023-02-07T20:33:52.558Z,1010.53
2023-02-07T20:34:53.439Z,1010.5
2023-02-07T20:35:54.296Z,1010.52
2023-02-07T20:36:55.171Z,1010.49
2023-02-07T20:37:56.053Z,1010.52
2023-02-07T20:38:56.956Z,1010.54
2023-02-07T20:39:57.880Z,1010.52
2023-02-07T20:40:58.788Z,1010.46
2023-02-07T20:41:59.662Z,1010.5
2023-02-07T20:43:00.553Z,1010.45
2023-02-07T20:44:05.709Z,1010.47
2023-02-07T20:45:03.570Z,1010.46
2023-02-07T20:46:04.412Z,1010.48
2023-02-07T20:47:05.734Z,1010.43
2023-02-07T20:48:06.652Z,1010.47
2023-02-07T20:49:07.550Z,1010.45
2023-02-07T20:50:08.505Z,1010.53
2023-02-07T20:51:09.350Z,1010.54
2023-02-07T20:52:10.226Z,1010.52
2023-02-07T20:53:11.082Z,1010.5
2023-02-07T20:54:12.008Z,1010.54
2023-02-07T20:55:12.942Z,1010.51
2023-02-07T20:56:13.844Z,1010.49
2023-02-07T20:57:14.698Z,1010.51
2023-02-07T20:58:15.606Z,1010.59
2023-02-07T20:59:16.468Z,1010.6
2023-02-07T21:00:17.375Z,1010.61
2023-02-07T21:01:18.456Z,1010.6
2023-02-07T21:02:19.757Z,1010.61
2023-02-07T21:03:20.664Z,1010.65
2023-02-07T21:04:21.567Z,1010.63
2023-02-07T21:05:22.519Z,1010.62
2023-02-07T21:06:23.664Z,1010.66
2023-02-07T21:07:25.035Z,1010.71
2023-02-07T21:08:26.454Z,1010.72
2023-02-07T21:09:27.756Z,1010.69
2023-02-07T21:10:28.894Z,1010.66
2023-02-07T21:11:29.809Z,1010.69
2023-02-07T21:12:30.689Z,1010.66
2023-02-07T21:13:31.556Z,1010.67
2023-02-07T21:14:32.459Z,1010.65
2023-02-07T21:15:33.316Z,1010.64
2023-02-07T21:16:34.593Z,1010.66
2023-02-07T21:17:35.517Z,1010.68
2023-02-07T21:18:36.371Z,1010.64
2023-02-07T21:19:37.253Z,1010.65
2023-02-07T21:20:39.626Z,1010.73
2023-02-07T21:21:40.800Z,1010.73
2023-02-07T21:22:41.665Z,1010.7
2023-02-07T21:23:42.587Z,1010.72
2023-02-07T21:24:44.138Z,1010.71
2023-02-07T21:25:45.027Z,1010.68
2023-02-07T21:26:45.924Z,1010.68
2023-02-07T21:27:46.951Z,1010.75
2023-02-07T21:28:47.944Z,1010.77
2023-02-07T21:29:48.832Z,1010.75
2023-02-07T21:30:49.808Z,1010.71
2023-02-07T21:31:51.061Z,1010.76
2023-02-07T21:32:52.023Z,1010.7
2023-02-07T21:33:52.902Z,1010.7
2023-02-07T21:34:53.794Z,1010.72
2023-02-07T21:35:54.667Z,1010.62
2023-02-07T21:36:55.563Z,1010.66
2023-02-07T21:37:56.648Z,1010.62
2023-02-07T21:38:57.707Z,1010.69
2023-02-07T21:39:58.574Z,1010.68
2023-02-07T21:40:59.493Z,1010.63
2023-02-07T21:42:00.428Z,1010.6
2023-02-07T21:43:01.355Z,1010.64
2023-02-07T21:44:02.226Z,1010.65
2023-02-07T21:45:03.098Z,1010.64
2023-02-07T21:46:04.396Z,1010.69
2023-02-07T21:47:05.416Z,1010.72
2023-02-07T21:48:06.446Z,1010.74
2023-02-07T21:49:07.327Z,1010.74
2023-02-07T21:50:08.199Z,1010.7
2023-02-07T21:51:09.067Z,1010.75
2023-02-07T21:52:09.968Z,1010.73
2023-02-07T21:53:10.856Z,1010.71
2023-02-07T21:54:11.726Z,1010.71
2023-02-07T21:55:12.639Z,1010.71
2023-02-07T21:56:13.535Z,1010.8
2023-02-07T21:57:14.420Z,1010.78
2023-02-07T21:58:15.301Z,1010.67
2023-02-07T21:59:16.325Z,1010.72
2023-02-07T22:00:17.203Z,1010.7
2023-02-07T22:01:18.287Z,1010.71
2023-02-07T22:02:19.356Z,1010.72
2023-02-07T22:03:20.230Z,1010.74
2023-02-07T22:04:21.099Z,1010.68
2023-02-07T22:05:21.980Z,1010.69
2023-02-07T22:06:22.946Z,1010.62
2023-02-07T22:07:23.842Z,1010.64
2023-02-07T22:08:24.826Z,1010.68
2023-02-07T22:09:25.693Z,1010.7
2023-02-07T22:10:26.557Z,1010.68
2023-02-07T22:11:27.589Z,1010.65
2023-02-07T22:12:29.197Z,1010.72
2023-02-07T22:13:30.114Z,1010.76
2023-02-07T22:14:31.007Z,1010.75
2023-02-07T22:15:34.488Z,1010.74
2023-02-07T22:16:32.419Z,1010.71
2023-02-07T22:17:33.391Z,1010.73
2023-02-07T22:18:34.245Z,1010.74
2023-02-07T22:19:35.095Z,1010.74
2023-02-07T22:20:35.973Z,1010.76
2023-02-07T22:21:36.962Z,1010.8
2023-02-07T22:22:37.870Z,1010.78
2023-02-07T22:23:38.746Z,1010.77
2023-02-07T22:24:39.653Z,1010.77
2023-02-07T22:25:40.532Z,1010.78
2023-02-07T22:26:41.522Z,1010.77
2023-02-07T22:27:42.630Z,1010.78
2023-02-07T22:28:43.490Z,1010.79
2023-02-07T22:29:44.366Z,1010.74
2023-02-07T22:30:47.075Z,1010.81
2023-02-07T22:31:48.848Z,1010.73
2023-02-07T22:32:49.856Z,1010.77
2023-02-07T22:33:50.757Z,1010.8
2023-02-07T22:34:51.658Z,1010.78
2023-02-07T22:35:52.546Z,1010.79
2023-02-07T22:36:53.485Z,1010.78
2023-02-07T22:37:54.385Z,1010.72
2023-02-07T22:38:55.398Z,1010.73
2023-02-07T22:39:56.382Z,1010.67
2023-02-07T22:40:57.242Z,1010.68
2023-02-07T22:41:58.151Z,1010.62
2023-02-07T22:42:59.154Z,1010.69
2023-02-07T22:44:00.003Z,1010.69
2023-02-07T22:45:00.894Z,1010.63
2023-02-07T22:46:01.973Z,1010.66
2023-02-07T22:47:02.983Z,1010.6
2023-02-07T22:48:03.903Z,1010.62
2023-02-07T22:49:04.838Z,1010.68
2023-02-07T22:50:05.911Z,1010.65
2023-02-07T22:51:06.805Z,1010.68
2023-02-07T22:52:07.775Z,1010.66
2023-02-07T22:53:08.726Z,1010.64
2023-02-07T22:54:09.623Z,1010.66
2023-02-07T22:55:10.541Z,1010.6
2023-02-07T22:56:11.433Z,1010.64
2023-02-07T22:57:12.400Z,1010.64
2023-02-07T22:58:15.984Z,1010.61
2023-02-07T22:59:15.900Z,1010.61
2023-02-07T23:00:16.859Z,1010.58
2023-02-07T23:01:17.766Z,1010.63
2023-02-07T23:02:21.739Z,1010.62
2023-02-07T23:03:19.592Z,1010.63
2023-02-07T23:04:20.479Z,1010.6
2023-02-07T23:05:21.364Z,1010.63
2023-02-07T23:06:22.268Z,1010.56
2023-02-07T23:07:23.494Z,1010.58
2023-02-07T23:08:24.780Z,1010.57
2023-02-07T23:09:25.679Z,1010.57
2023-02-07T23:10:26.720Z,1010.62
2023-02-07T23:11:27.694Z,1010.6
2023-02-07T23:12:28.621Z,1010.6
2023-02-07T23:13:29.581Z,1010.64
2023-02-07T23:14:30.454Z,1010.67
2023-02-07T23:15:31.496Z,1010.61
2023-02-07T23:16:32.424Z,1010.61
2023-02-07T23:17:33.324Z,1010.59
2023-02-07T23:18:34.336Z,1010.62
2023-02-07T23:19:35.295Z,1010.61
2023-02-07T23:20:36.250Z,1010.62
2023-02-07T23:21:37.163Z,1010.63
2023-02-07T23:22:38.045Z,1010.67
2023-02-07T23:23:38.959Z,1010.68
2023-02-07T23:24:39.881Z,1010.65
2023-02-07T23:25:40.804Z,1010.66
2023-02-07T23:26:41.725Z,1010.69
2023-02-07T23:27:42.666Z,1010.61
2023-02-07T23:28:43.575Z,1010.62
2023-02-07T23:29:44.503Z,1010.61
2023-02-07T23:30:45.847Z,1010.63
2023-02-07T23:31:47.319Z,1010.63
2023-02-07T23:32:48.303Z,1010.6
2023-02-07T23:33:49.212Z,1010.59
2023-02-07T23:34:50.107Z,1010.56
2023-02-07T23:35:51.025Z,1010.58
2023-02-07T23:36:51.925Z,1010.58
2023-02-07T23:37:52.856Z,1010.56
2023-02-07T23:38:53.730Z,1010.56
2023-02-07T23:39:54.621Z,1010.58
2023-02-07T23:40:55.513Z,1010.6
2023-02-07T23:41:56.403Z,1010.55
2023-02-07T23:42:57.382Z,1010.56
2023-02-07T23:43:58.362Z,1010.57
2023-02-07T23:44:59.258Z,1010.56
2023-02-07T23:46:00.426Z,1010.54
2023-02-07T23:47:01.339Z,1010.56
2023-02-07T23:48:02.254Z,1010.51
2023-02-07T23:49:03.256Z,1010.55
2023-02-07T23:50:04.177Z,1010.55
2023-02-07T23:51:05.058Z,1010.52
2023-02-07T23:52:05.984Z,1010.55
2023-02-07T23:53:06.864Z,1010.55
2023-02-07T23:54:07.744Z,1010.54
2023-02-07T23:55:08.685Z,1010.52
2023-02-07T23:56:09.587Z,1010.55
2023-02-07T23:57:10.503Z,1010.57
2023-02-07T23:58:11.469Z,1010.52
2023-02-07T23:59:12.433Z,1010.53
